createdAt,value
2017-07-03T00:00:07.462Z,84.10
2017-07-03T00:02:35.645Z,84.60
2017-07-03T00:05:03.852Z,84.60
2017-07-03T00:07:32.792Z,84.80
2017-07-03T00:10:01.013Z,84.80
2017-07-03T00:12:29.944Z,84.60
2017-07-03T00:14:58.140Z,84.50
2017-07-03T00:17:26.312Z,84.10
2017-07-03T00:19:54.487Z,84.30
2017-07-03T00:22:22.663Z,84.20
2017-07-03T00:24:50.874Z,84.10
2017-07-03T00:27:19.803Z,84.10
2017-07-03T00:29:47.965Z,84.10
2017-07-03T00:32:16.199Z,84.00
2017-07-03T00:34:45.168Z,84.40
2017-07-03T00:37:13.354Z,84.40
2017-07-03T00:39:41.524Z,84.30
2017-07-03T00:42:09.755Z,84.40
2017-07-03T00:44:37.912Z,84.70
2017-07-03T00:47:06.086Z,84.70
2017-07-03T00:49:34.302Z,85.20
2017-07-03T00:52:02.469Z,85.30
2017-07-03T00:54:30.642Z,85.50
2017-07-03T00:56:58.903Z,85.10
2017-07-03T00:59:27.101Z,84.60
2017-07-03T01:01:55.320Z,84.60
2017-07-03T01:04:24.376Z,84.20
2017-07-03T01:06:52.554Z,84.30
2017-07-03T01:09:20.713Z,84.30
2017-07-03T01:11:48.985Z,83.90
2017-07-03T01:14:17.153Z,83.20
2017-07-03T01:16:45.360Z,83.30
2017-07-03T01:19:14.327Z,87.40
2017-07-03T01:21:42.606Z,87.30
2017-07-03T01:24:10.785Z,86.90
2017-07-03T01:26:38.999Z,86.90
2017-07-03T01:29:07.180Z,85.90
2017-07-03T01:31:35.358Z,83.80
2017-07-03T01:34:03.585Z,85.70
2017-07-03T01:36:32.539Z,88.20
2017-07-03T01:39:00.691Z,87.90
2017-07-03T01:41:28.885Z,87.40
2017-07-03T01:43:57.035Z,87.00
2017-07-03T01:46:25.187Z,86.30
2017-07-03T01:48:54.147Z,84.50
2017-07-03T01:51:22.347Z,84.30
2017-07-03T01:53:51.288Z,84.10
2017-07-03T01:56:19.498Z,84.00
2017-07-03T01:58:47.709Z,83.50
2017-07-03T02:01:16.002Z,83.50
2017-07-03T02:03:44.368Z,83.40
2017-07-03T02:06:12.525Z,80.30
2017-07-03T02:08:40.684Z,83.10
2017-07-03T02:11:08.899Z,86.50
2017-07-03T02:13:37.058Z,89.80
2017-07-03T02:16:05.236Z,88.00
2017-07-03T02:18:33.431Z,89.20
2017-07-03T02:21:01.627Z,88.50
2017-07-03T02:23:29.770Z,87.40
2017-07-03T02:25:57.931Z,85.00
2017-07-03T02:28:26.122Z,85.80
2017-07-03T02:30:54.311Z,85.30
2017-07-03T02:33:22.468Z,85.80
2017-07-03T02:35:50.683Z,87.20
2017-07-03T02:38:19.630Z,87.20
2017-07-03T02:40:47.788Z,87.20
2017-07-03T02:43:16.022Z,86.90
2017-07-03T02:45:44.946Z,85.90
2017-07-03T02:48:13.118Z,85.90
2017-07-03T02:50:41.325Z,86.80
2017-07-03T02:53:09.496Z,87.30
2017-07-03T02:55:37.735Z,87.50
2017-07-03T02:58:05.990Z,88.40
2017-07-03T03:00:34.253Z,89.10
2017-07-03T03:03:03.351Z,89.60
2017-07-03T03:05:31.584Z,89.60
2017-07-03T03:07:59.809Z,89.20
2017-07-03T03:10:27.987Z,86.20
2017-07-03T03:12:56.370Z,88.20
2017-07-03T03:15:24.568Z,84.20
2017-07-03T03:17:52.835Z,85.40
2017-07-03T03:20:21.006Z,87.30
2017-07-03T03:22:49.364Z,87.30
2017-07-03T03:25:17.554Z,87.70
2017-07-03T03:27:45.729Z,88.40
2017-07-03T03:30:13.975Z,87.30
2017-07-03T03:32:42.188Z,86.40
2017-07-03T03:35:10.375Z,85.60
2017-07-03T03:37:38.758Z,83.90
2017-07-03T03:40:07.004Z,84.70
2017-07-03T03:42:35.302Z,85.50
2017-07-03T03:45:03.559Z,85.00
2017-07-03T03:47:31.743Z,86.10
2017-07-03T03:50:00.008Z,85.90
2017-07-03T03:52:28.204Z,86.00
2017-07-03T03:54:57.184Z,84.60
2017-07-03T03:57:25.382Z,84.70
2017-07-03T03:59:53.669Z,84.70
2017-07-03T04:02:22.593Z,86.30
2017-07-03T04:04:50.772Z,86.30
2017-07-03T04:07:19.007Z,84.90
2017-07-03T04:09:48.030Z,83.30
2017-07-03T04:12:16.547Z,82.40
2017-07-03T04:14:44.766Z,80.80
2017-07-03T04:17:13.767Z,80.50
2017-07-03T04:19:42.924Z,78.90
2017-07-03T04:22:11.113Z,78.80
2017-07-03T04:24:40.090Z,73.60
2017-07-03T04:27:08.317Z,73.60
2017-07-03T04:29:36.499Z,70.70
2017-07-03T04:32:04.727Z,69.80
2017-07-03T04:34:32.980Z,68.00
2017-07-03T04:37:01.199Z,66.10
2017-07-03T04:39:30.214Z,64.00
2017-07-03T04:41:58.382Z,64.00
2017-07-03T04:44:26.625Z,63.70
2017-07-03T04:46:55.629Z,61.20
2017-07-03T04:49:23.806Z,60.40
2017-07-03T04:51:52.337Z,59.50
2017-07-03T04:54:20.527Z,58.50
2017-07-03T04:56:48.693Z,57.50
2017-07-03T04:59:16.908Z,59.40
2017-07-03T05:01:45.087Z,61.30
2017-07-03T05:04:13.371Z,61.70
2017-07-03T05:06:41.572Z,60.30
2017-07-03T05:09:09.808Z,60.70
2017-07-03T05:11:38.073Z,59.60
2017-07-03T05:14:07.056Z,56.10
2017-07-03T05:16:35.977Z,54.60
2017-07-03T05:19:04.215Z,54.60
2017-07-03T05:21:33.150Z,57.60
2017-07-03T05:24:01.388Z,57.50
2017-07-03T05:26:29.575Z,56.60
2017-07-03T05:28:57.784Z,57.80
2017-07-03T05:31:25.961Z,60.00
2017-07-03T05:33:54.191Z,60.80
2017-07-03T05:36:22.372Z,64.50
2017-07-03T05:38:50.555Z,65.30
2017-07-03T05:41:18.822Z,66.50
2017-07-03T05:43:52.643Z,65.40
2017-07-03T05:46:20.866Z,64.90
2017-07-03T05:48:49.828Z,62.60
2017-07-03T05:51:18.005Z,62.50
2017-07-03T05:53:46.354Z,57.50
2017-07-03T05:56:14.637Z,58.70
2017-07-03T05:58:42.785Z,58.40
2017-07-03T06:01:10.987Z,54.50
2017-07-03T06:03:39.161Z,52.60
2017-07-03T06:06:07.866Z,52.70
2017-07-03T06:08:36.106Z,52.70
2017-07-03T06:11:04.372Z,53.30
2017-07-03T06:13:32.551Z,56.60
2017-07-03T06:16:00.759Z,57.10
2017-07-03T06:18:28.985Z,54.30
2017-07-03T06:20:57.139Z,55.40
2017-07-03T06:23:25.347Z,56.80
2017-07-03T06:25:54.415Z,57.00
2017-07-03T06:28:22.576Z,57.50
2017-07-03T06:30:51.539Z,56.60
2017-07-03T06:33:19.860Z,56.60
2017-07-03T06:35:48.026Z,56.80
2017-07-03T06:38:16.275Z,56.60
2017-07-03T06:40:44.522Z,57.80
2017-07-03T06:43:12.713Z,59.50
2017-07-03T06:45:41.122Z,60.60
2017-07-03T06:48:09.375Z,61.60
2017-07-03T06:50:37.561Z,60.80
2017-07-03T06:53:05.815Z,58.90
2017-07-03T06:55:33.967Z,58.60
2017-07-03T06:58:02.162Z,56.80
2017-07-03T07:00:31.275Z,55.90
2017-07-03T07:03:00.307Z,56.10
2017-07-03T07:05:28.506Z,56.00
2017-07-03T07:07:56.809Z,55.00
2017-07-03T07:10:25.080Z,54.10
2017-07-03T07:12:53.307Z,53.50
2017-07-03T07:15:21.488Z,51.40
2017-07-03T07:17:50.002Z,51.10
2017-07-03T07:20:18.336Z,52.20
2017-07-03T07:22:46.559Z,53.10
2017-07-03T07:25:15.901Z,54.60
2017-07-03T07:27:44.080Z,54.50
2017-07-03T07:30:12.298Z,55.60
2017-07-03T07:32:41.368Z,56.00
2017-07-03T07:35:09.593Z,56.00
2017-07-03T07:37:38.732Z,56.10
2017-07-03T07:40:06.907Z,56.10
2017-07-03T07:42:35.212Z,55.40
2017-07-03T07:45:03.375Z,57.80
2017-07-03T07:47:31.552Z,57.60
2017-07-03T07:49:59.756Z,57.40
2017-07-03T07:52:28.684Z,54.30
2017-07-03T07:54:57.031Z,54.30
2017-07-03T07:57:25.956Z,55.20
2017-07-03T07:59:54.128Z,55.30
2017-07-03T08:02:22.322Z,51.80
2017-07-03T08:04:50.618Z,53.00
2017-07-03T08:07:18.790Z,54.40
2017-07-03T08:09:47.780Z,56.00
2017-07-03T08:12:15.928Z,55.80
2017-07-03T08:14:44.183Z,57.30
2017-07-03T08:17:12.365Z,55.50
2017-07-03T08:19:40.543Z,54.30
2017-07-03T08:22:08.736Z,54.70
2017-07-03T08:24:36.964Z,52.60
2017-07-03T08:27:05.260Z,52.10
2017-07-03T08:29:33.445Z,51.40
2017-07-03T08:32:01.697Z,49.40
2017-07-03T08:34:29.860Z,47.90
2017-07-03T08:36:58.077Z,46.90
2017-07-03T08:39:26.323Z,49.10
2017-07-03T08:41:54.624Z,49.90
2017-07-03T08:44:22.801Z,52.90
2017-07-03T08:46:51.030Z,51.70
2017-07-03T08:49:19.224Z,51.30
2017-07-03T08:51:47.485Z,51.00
2017-07-03T08:54:15.697Z,50.70
2017-07-03T08:56:43.900Z,50.50
2017-07-03T08:59:12.099Z,50.40
2017-07-03T09:01:40.280Z,51.00
2017-07-03T09:04:09.382Z,55.00
2017-07-03T09:06:37.553Z,54.90
2017-07-03T09:09:05.732Z,55.00
2017-07-03T09:11:33.970Z,56.10
2017-07-03T09:14:02.143Z,55.70
2017-07-03T09:16:30.339Z,54.20
2017-07-03T09:18:58.539Z,53.10
2017-07-03T09:21:26.723Z,51.40
2017-07-03T09:23:54.907Z,50.10
2017-07-03T09:26:23.129Z,50.90
2017-07-03T09:28:51.347Z,49.40
2017-07-03T09:31:19.583Z,49.30
2017-07-03T09:33:47.804Z,48.60
2017-07-03T09:36:15.974Z,49.60
2017-07-03T09:38:44.192Z,49.40
2017-07-03T09:41:12.402Z,48.00
2017-07-03T09:43:40.645Z,47.10
2017-07-03T09:46:08.857Z,48.80
2017-07-03T09:48:37.018Z,48.20
2017-07-03T09:51:05.235Z,47.00
2017-07-03T09:53:33.432Z,44.80
2017-07-03T09:56:01.779Z,45.00
2017-07-03T09:58:30.758Z,45.30
2017-07-03T10:00:58.952Z,45.90
2017-07-03T10:03:27.888Z,44.90
2017-07-03T10:05:56.098Z,44.80
2017-07-03T10:08:25.048Z,42.30
2017-07-03T10:10:53.305Z,42.30
2017-07-03T10:13:21.707Z,42.90
2017-07-03T10:15:49.899Z,45.30
2017-07-03T10:18:18.221Z,44.80
2017-07-03T10:20:46.772Z,42.60
2017-07-03T10:23:15.783Z,41.40
2017-07-03T10:25:44.753Z,42.70
2017-07-03T10:28:13.780Z,44.40
2017-07-03T10:30:42.155Z,44.40
2017-07-03T10:33:10.357Z,44.60
2017-07-03T10:35:38.531Z,46.00
2017-07-03T10:38:06.787Z,44.30
2017-07-03T10:40:35.001Z,43.20
2017-07-03T10:43:03.164Z,44.60
2017-07-03T10:45:31.319Z,45.10
2017-07-03T10:47:59.804Z,45.10
2017-07-03T10:50:28.038Z,44.90
2017-07-03T10:52:56.969Z,44.40
2017-07-03T10:55:25.139Z,44.40
2017-07-03T10:57:53.344Z,44.50
2017-07-03T11:00:21.528Z,44.10
2017-07-03T11:02:50.557Z,42.20
2017-07-03T11:05:18.751Z,42.20
2017-07-03T11:07:46.949Z,41.70
2017-07-03T11:10:15.262Z,40.80
2017-07-03T11:12:44.224Z,40.00
2017-07-03T11:15:12.452Z,39.90
2017-07-03T11:17:40.704Z,40.70
2017-07-03T11:20:09.004Z,41.30
2017-07-03T11:22:37.282Z,41.20
2017-07-03T11:25:05.603Z,41.40
2017-07-03T11:27:33.801Z,41.90
2017-07-03T11:30:02.000Z,41.80
2017-07-03T11:32:30.208Z,42.70
2017-07-03T11:34:58.385Z,42.00
2017-07-03T11:37:26.605Z,40.80
2017-07-03T11:39:54.840Z,41.00
2017-07-03T11:42:23.016Z,40.20
2017-07-03T11:44:51.303Z,40.50
2017-07-03T11:47:20.228Z,38.70
2017-07-03T11:49:48.446Z,38.60
2017-07-03T11:52:16.765Z,38.20
2017-07-03T11:54:44.960Z,38.20
2017-07-03T11:57:13.240Z,37.60
2017-07-03T11:59:41.547Z,37.70
2017-07-03T12:02:09.745Z,37.60
2017-07-03T12:04:38.690Z,37.60
2017-07-03T12:07:06.934Z,37.60
2017-07-03T12:09:35.110Z,37.70
2017-07-03T12:12:03.296Z,38.50
2017-07-03T12:14:31.480Z,39.20
2017-07-03T12:16:59.651Z,38.60
2017-07-03T12:19:27.871Z,37.50
2017-07-03T12:21:56.811Z,38.20
2017-07-03T12:24:25.016Z,38.20
2017-07-03T12:26:53.215Z,37.50
2017-07-03T12:29:22.127Z,37.80
2017-07-03T12:31:50.317Z,37.80
2017-07-03T12:34:18.601Z,36.80
2017-07-03T12:36:46.755Z,38.10
2017-07-03T12:39:14.915Z,37.90
2017-07-03T12:41:43.122Z,37.70
2017-07-03T12:44:11.322Z,37.20
2017-07-03T12:46:39.542Z,36.20
2017-07-03T12:49:07.747Z,36.80
2017-07-03T12:51:35.952Z,36.50
2017-07-03T12:54:04.116Z,35.90
2017-07-03T12:56:32.365Z,35.80
2017-07-03T12:59:00.544Z,36.20
2017-07-03T13:01:28.737Z,35.60
2017-07-03T13:03:57.068Z,35.10
2017-07-03T13:06:25.234Z,36.30
2017-07-03T13:08:53.439Z,36.10
2017-07-03T13:11:22.000Z,34.70
2017-07-03T13:13:50.368Z,34.60
2017-07-03T13:16:18.559Z,34.90
2017-07-03T13:18:46.715Z,35.10
2017-07-03T13:21:14.944Z,35.30
2017-07-03T13:23:43.195Z,36.20
2017-07-03T13:26:11.408Z,35.90
2017-07-03T13:28:40.348Z,35.50
2017-07-03T13:31:08.581Z,35.50
2017-07-03T13:33:36.761Z,35.40
2017-07-03T13:36:04.944Z,34.80
2017-07-03T13:38:33.145Z,35.90
2017-07-03T13:41:01.343Z,35.20
2017-07-03T13:43:29.709Z,35.00
2017-07-03T13:45:57.942Z,35.00
2017-07-03T13:48:26.140Z,35.10
2017-07-03T13:50:54.353Z,34.80
2017-07-03T13:53:23.318Z,35.10
2017-07-03T13:55:51.542Z,35.10
2017-07-03T13:58:19.763Z,33.80
2017-07-03T14:00:47.944Z,34.80
2017-07-03T14:03:16.151Z,34.10
2017-07-03T14:05:45.405Z,33.70
2017-07-03T14:08:13.627Z,33.80
2017-07-03T14:10:42.579Z,33.80
2017-07-03T14:13:10.781Z,33.80
2017-07-03T14:15:39.873Z,34.00
2017-07-03T14:18:08.637Z,33.30
2017-07-03T14:20:36.823Z,33.60
2017-07-03T14:23:05.015Z,33.50
2017-07-03T14:25:33.997Z,33.60
2017-07-03T14:28:02.986Z,33.10
2017-07-03T14:30:31.247Z,33.00
2017-07-03T14:32:59.440Z,32.80
2017-07-03T14:35:28.384Z,32.50
2017-07-03T14:37:56.585Z,32.50
2017-07-03T14:40:24.803Z,32.90
2017-07-03T14:42:53.177Z,33.50
2017-07-03T14:45:22.277Z,34.00
2017-07-03T14:47:50.499Z,34.00
2017-07-03T14:50:18.704Z,34.20
2017-07-03T14:52:47.653Z,33.50
2017-07-03T14:55:15.875Z,33.40
2017-07-03T14:57:44.837Z,32.20
2017-07-03T15:00:13.024Z,32.10
2017-07-03T15:02:41.980Z,31.80
2017-07-03T15:05:10.146Z,31.80
2017-07-03T15:07:38.353Z,32.20
2017-07-03T15:10:06.570Z,33.00
2017-07-03T15:12:34.816Z,33.40
2017-07-03T15:15:03.789Z,32.80
2017-07-03T15:17:31.979Z,32.80
2017-07-03T15:20:00.597Z,32.90
2017-07-03T15:22:28.817Z,33.30
2017-07-03T15:24:56.996Z,33.70
2017-07-03T15:27:25.216Z,32.80
2017-07-03T15:29:53.392Z,32.30
2017-07-03T15:32:21.579Z,31.30
2017-07-03T15:34:49.913Z,32.10
2017-07-03T15:37:18.281Z,32.80
2017-07-03T15:39:47.256Z,33.10
2017-07-03T15:42:15.439Z,33.10
2017-07-03T15:44:44.432Z,33.60
2017-07-03T15:47:13.447Z,33.20
2017-07-03T15:49:41.717Z,33.20
2017-07-03T15:52:09.977Z,32.90
2017-07-03T15:54:38.959Z,33.80
2017-07-03T15:57:07.148Z,33.70
2017-07-03T15:59:36.119Z,32.80
2017-07-03T16:02:04.330Z,32.80
2017-07-03T16:04:32.523Z,33.20
2017-07-03T16:07:00.755Z,32.70
2017-07-03T16:09:29.934Z,33.30
2017-07-03T16:11:58.209Z,33.30
2017-07-03T16:14:26.390Z,33.10
2017-07-03T16:16:55.575Z,34.20
2017-07-03T16:19:23.817Z,33.50
2017-07-03T16:21:52.003Z,33.10
2017-07-03T16:24:20.280Z,32.80
2017-07-03T16:26:48.467Z,33.60
2017-07-03T16:29:16.667Z,34.60
2017-07-03T16:31:45.638Z,34.80
2017-07-03T16:34:13.835Z,34.80
2017-07-03T16:36:42.839Z,33.90
2017-07-03T16:39:11.156Z,33.90
2017-07-03T16:41:39.471Z,34.40
2017-07-03T16:44:07.760Z,34.40
2017-07-03T16:46:36.852Z,34.10
2017-07-03T16:49:05.157Z,34.10
2017-07-03T16:51:33.348Z,34.70
2017-07-03T16:54:01.514Z,35.10
2017-07-03T16:56:30.619Z,34.90
2017-07-03T16:58:58.869Z,34.80
2017-07-03T17:01:27.080Z,35.40
2017-07-03T17:03:55.320Z,34.70
2017-07-03T17:06:23.715Z,35.00
2017-07-03T17:08:51.973Z,34.50
2017-07-03T17:11:20.175Z,34.90
2017-07-03T17:13:48.508Z,34.50
2017-07-03T17:16:16.759Z,34.60
2017-07-03T17:18:45.864Z,35.60
2017-07-03T17:21:14.824Z,35.70
2017-07-03T17:23:42.970Z,35.80
2017-07-03T17:26:11.202Z,35.90
2017-07-03T17:28:40.173Z,36.00
2017-07-03T17:31:08.357Z,36.00
2017-07-03T17:33:36.572Z,36.20
2017-07-03T17:36:04.752Z,36.50
2017-07-03T17:38:32.953Z,36.80
2017-07-03T17:41:01.164Z,36.60
2017-07-03T17:43:29.364Z,36.80
2017-07-03T17:45:57.570Z,37.30
2017-07-03T17:48:25.817Z,37.60
2017-07-03T17:50:54.045Z,37.80
2017-07-03T17:53:23.169Z,38.00
2017-07-03T17:55:51.485Z,37.90
2017-07-03T17:58:19.667Z,38.30
2017-07-03T18:00:47.885Z,38.30
2017-07-03T18:03:16.045Z,38.70
2017-07-03T18:05:44.376Z,39.10
2017-07-03T18:08:12.589Z,38.70
2017-07-03T18:10:41.700Z,39.20
2017-07-03T18:13:09.904Z,39.20
2017-07-03T18:15:38.255Z,39.40
2017-07-03T18:18:06.454Z,39.50
2017-07-03T18:20:34.653Z,39.10
2017-07-03T18:23:02.880Z,39.10
2017-07-03T18:25:31.168Z,39.40
2017-07-03T18:27:59.375Z,39.80
2017-07-03T18:30:27.665Z,40.00
2017-07-03T18:32:56.653Z,40.10
2017-07-03T18:35:25.655Z,40.90
2017-07-03T18:37:54.789Z,40.90
2017-07-03T18:40:22.966Z,40.50
2017-07-03T18:42:51.279Z,40.30
2017-07-03T18:45:19.476Z,40.50
2017-07-03T18:47:48.427Z,39.70
2017-07-03T18:50:16.612Z,39.70
2017-07-03T18:52:44.858Z,40.00
2017-07-03T18:55:13.058Z,40.20
2017-07-03T18:57:41.236Z,40.70
2017-07-03T19:00:09.427Z,41.20
2017-07-03T19:02:38.389Z,41.60
2017-07-03T19:05:06.568Z,41.50
2017-07-03T19:07:34.801Z,41.50
2017-07-03T19:10:02.996Z,41.80
2017-07-03T19:12:31.163Z,41.70
2017-07-03T19:14:59.375Z,41.50
2017-07-03T19:17:27.547Z,41.40
2017-07-03T19:19:55.748Z,41.60
2017-07-03T19:22:24.808Z,42.30
2017-07-03T19:24:53.028Z,42.30
2017-07-03T19:27:21.222Z,42.80
2017-07-03T19:29:49.426Z,43.70
2017-07-03T19:32:17.664Z,43.30
2017-07-03T19:34:45.946Z,43.50
2017-07-03T19:37:14.138Z,43.60
2017-07-03T19:39:42.401Z,43.90
2017-07-03T19:42:10.595Z,44.00
2017-07-03T19:44:38.782Z,44.00
2017-07-03T19:47:07.770Z,44.20
2017-07-03T19:49:36.733Z,44.70
2017-07-03T19:52:04.985Z,44.40
2017-07-03T19:54:33.191Z,44.80
2017-07-03T19:57:01.387Z,44.60
2017-07-03T19:59:29.649Z,44.80
2017-07-03T20:01:57.884Z,44.90
2017-07-03T20:04:26.883Z,45.70
2017-07-03T20:06:55.055Z,45.10
2017-07-03T20:09:23.245Z,45.50
2017-07-03T20:11:51.434Z,45.80
2017-07-03T20:14:20.811Z,45.90
2017-07-03T20:16:48.958Z,46.00
2017-07-03T20:19:17.152Z,46.30
2017-07-03T20:21:45.389Z,46.00
2017-07-03T20:24:13.650Z,46.40
2017-07-03T20:26:42.632Z,47.40
2017-07-03T20:29:10.865Z,47.30
2017-07-03T20:31:39.070Z,47.50
2017-07-03T20:34:07.582Z,48.20
2017-07-03T20:36:35.810Z,48.50
2017-07-03T20:39:03.949Z,49.50
2017-07-03T20:41:32.117Z,51.40
2017-07-03T20:44:00.353Z,51.50
2017-07-03T20:46:28.507Z,52.40
2017-07-03T20:48:56.702Z,53.10
2017-07-03T20:51:25.664Z,54.70
2017-07-03T20:53:53.921Z,54.60
2017-07-03T20:56:22.203Z,54.70
2017-07-03T20:58:50.511Z,55.80
2017-07-03T21:01:19.485Z,55.50
2017-07-03T21:03:47.771Z,54.90
2017-07-03T21:06:16.010Z,54.80
2017-07-03T21:08:45.025Z,54.70
2017-07-03T21:11:13.216Z,55.00
2017-07-03T21:13:42.218Z,55.10
2017-07-03T21:16:10.416Z,55.10
2017-07-03T21:18:38.614Z,55.10
2017-07-03T21:21:06.796Z,55.70
2017-07-03T21:23:34.989Z,56.70
2017-07-03T21:26:03.286Z,57.20
2017-07-03T21:28:31.442Z,57.60
2017-07-03T21:30:59.629Z,57.70
2017-07-03T21:33:28.587Z,59.70
2017-07-03T21:35:56.806Z,59.70
2017-07-03T21:38:26.709Z,60.00
2017-07-03T21:40:54.930Z,60.00
2017-07-03T21:43:23.093Z,60.30
2017-07-03T21:45:51.272Z,60.50
2017-07-03T21:48:19.504Z,59.30
2017-07-03T21:50:48.536Z,59.20
2017-07-03T21:53:16.727Z,59.20
2017-07-03T21:55:45.180Z,59.20
2017-07-03T21:58:13.335Z,59.40
2017-07-03T22:00:42.281Z,58.20
2017-07-03T22:03:10.494Z,58.20
2017-07-03T22:05:39.425Z,58.00
2017-07-03T22:08:07.603Z,58.00
2017-07-03T22:10:35.851Z,57.00
2017-07-03T22:13:04.048Z,56.90
2017-07-03T22:15:32.237Z,57.80
2017-07-03T22:18:00.463Z,57.90
2017-07-03T22:20:28.668Z,58.20
2017-07-03T22:22:56.858Z,58.40
2017-07-03T22:25:25.098Z,58.50
2017-07-03T22:27:53.274Z,58.50
2017-07-03T22:30:21.450Z,58.70
2017-07-03T22:32:49.667Z,58.40
2017-07-03T22:35:17.837Z,58.50
2017-07-03T22:37:46.014Z,58.40
2017-07-03T22:40:14.543Z,58.40
2017-07-03T22:42:42.727Z,58.20
2017-07-03T22:45:10.903Z,58.30
2017-07-03T22:47:39.139Z,58.10
2017-07-03T22:50:07.342Z,60.70
2017-07-03T22:52:35.508Z,60.00
2017-07-03T22:55:03.706Z,61.70
2017-07-03T22:57:31.890Z,62.70
2017-07-03T23:00:00.088Z,62.80
2017-07-03T23:02:28.313Z,62.10
2017-07-03T23:04:56.589Z,60.10
2017-07-03T23:07:24.815Z,59.60
2017-07-03T23:09:53.011Z,59.20
2017-07-03T23:12:21.259Z,58.90
2017-07-03T23:14:49.433Z,58.50
2017-07-03T23:17:17.658Z,58.70
2017-07-03T23:19:45.834Z,59.10
2017-07-03T23:22:14.017Z,58.80
2017-07-03T23:24:42.278Z,58.70
2017-07-03T23:27:10.496Z,58.90
2017-07-03T23:29:38.676Z,59.40
2017-07-03T23:32:07.036Z,59.20
2017-07-03T23:34:35.213Z,58.40
2017-07-03T23:37:03.401Z,58.80
2017-07-03T23:39:32.436Z,58.90
2017-07-03T23:42:00.694Z,58.50
2017-07-03T23:44:28.948Z,58.90
2017-07-03T23:46:57.920Z,59.40
2017-07-03T23:49:26.096Z,59.40
2017-07-03T23:51:54.275Z,59.70
2017-07-03T23:54:22.508Z,60.10
2017-07-03T23:56:50.755Z,61.80
2017-07-03T23:59:18.951Z,61.10
